createdAt,value
2022-08-17T00:00:16.515Z,4.65
2022-08-17T00:03:08.768Z,4.82
2022-08-17T00:05:46.844Z,4.95
2022-08-17T00:08:17.155Z,4.90
2022-08-17T00:10:45.905Z,4.70
2022-08-17T00:13:25.847Z,4.53
2022-08-17T00:15:59.682Z,4.32
2022-08-17T00:19:06.311Z,4.43
2022-08-17T00:21:23.776Z,4.78
2022-08-17T00:23:52.517Z,4.82
2022-08-17T00:26:34.535Z,4.53
2022-08-17T00:29:08.444Z,4.65
2022-08-17T00:31:36.470Z,3.90
2022-08-17T00:34:06.199Z,4.32
2022-08-17T00:36:33.131Z,4.35
2022-08-17T00:39:00.000Z,4.55
2022-08-17T00:41:28.467Z,4.50
2022-08-17T00:44:04.606Z,4.47
2022-08-17T00:46:42.079Z,4.78
2022-08-17T00:49:12.450Z,4.60
2022-08-17T00:51:57.421Z,4.70
2022-08-17T00:54:41.958Z,4.97
2022-08-17T00:57:18.885Z,4.28
2022-08-17T01:00:01.976Z,4.45
2022-08-17T01:02:40.518Z,4.60
2022-08-17T01:05:17.174Z,4.60
2022-08-17T01:07:48.513Z,4.68
2022-08-17T01:10:59.084Z,4.15
2022-08-17T01:13:06.980Z,4.65
2022-08-17T01:15:39.285Z,4.85
2022-08-17T01:18:09.593Z,4.50
2022-08-17T01:20:58.812Z,4.68
2022-08-17T01:23:28.927Z,5.20
2022-08-17T01:26:01.396Z,5.53
2022-08-17T01:28:52.221Z,4.88
2022-08-17T01:31:18.309Z,4.93
2022-08-17T01:33:45.188Z,4.80
2022-08-17T01:36:12.032Z,4.95
2022-08-17T01:38:39.359Z,5.40
2022-08-17T01:41:14.036Z,4.97
2022-08-17T01:44:02.010Z,4.88
2022-08-17T01:46:33.991Z,4.40
2022-08-17T01:49:01.662Z,4.57
2022-08-17T01:51:32.702Z,4.22
2022-08-17T01:54:05.674Z,4.25
2022-08-17T01:56:35.632Z,4.35
2022-08-17T01:59:02.902Z,4.78
2022-08-17T02:01:32.872Z,4.20
2022-08-17T02:04:01.900Z,4.90
2022-08-17T02:06:47.115Z,4.90
2022-08-17T02:09:25.218Z,4.70
2022-08-17T02:11:56.212Z,4.38
2022-08-17T02:14:24.685Z,4.13
2022-08-17T02:16:53.197Z,3.78
2022-08-17T02:19:20.564Z,4.53
2022-08-17T02:21:50.786Z,4.60
2022-08-17T02:24:59.843Z,4.28
2022-08-17T02:31:26.051Z,4.63
2022-08-17T02:34:04.034Z,4.50
2022-08-17T02:36:34.522Z,5.40
2022-08-17T02:39:09.317Z,4.82
2022-08-17T02:41:36.634Z,4.90
2022-08-17T02:44:05.845Z,4.30
2022-08-17T02:46:32.705Z,4.43
2022-08-17T02:48:59.742Z,4.80
2022-08-17T02:51:26.943Z,5.15
2022-08-17T02:54:05.316Z,4.97
2022-08-17T02:56:40.973Z,5.20
2022-08-17T02:59:07.786Z,4.63
2022-08-17T03:01:35.111Z,5.28
2022-08-17T03:04:02.128Z,5.03
2022-08-17T03:06:29.195Z,4.80
2022-08-17T03:08:56.037Z,4.45
2022-08-17T03:11:23.528Z,4.68
2022-08-17T03:13:50.727Z,4.95
2022-08-17T03:16:17.687Z,5.10
2022-08-17T03:18:44.490Z,4.40
2022-08-17T03:21:11.595Z,5.80
2022-08-17T03:23:42.115Z,5.22
2022-08-17T03:26:13.490Z,4.63
2022-08-17T03:28:42.663Z,5.05
2022-08-17T03:31:09.698Z,5.18
2022-08-17T03:33:36.562Z,5.50
2022-08-17T03:36:04.131Z,5.97
2022-08-17T03:38:39.357Z,5.60
2022-08-17T03:41:07.052Z,5.80
2022-08-17T03:43:34.615Z,5.47
2022-08-17T03:46:27.673Z,5.43
2022-08-17T03:49:23.200Z,5.97
2022-08-17T03:52:08.583Z,5.80
2022-08-17T03:54:54.041Z,5.70
2022-08-17T03:57:21.078Z,5.57
2022-08-17T03:59:48.152Z,5.63
2022-08-17T04:02:39.254Z,5.45
2022-08-17T04:05:06.598Z,5.47
2022-08-17T04:07:33.481Z,5.32
2022-08-17T04:10:01.058Z,5.28
2022-08-17T04:12:31.669Z,5.93
2022-08-17T04:14:59.005Z,5.43
2022-08-17T04:17:29.011Z,5.70
2022-08-17T04:19:57.166Z,5.38
2022-08-17T04:22:32.445Z,5.63
2022-08-17T04:25:18.594Z,6.43
2022-08-17T04:27:45.461Z,6.38
2022-08-17T04:30:13.324Z,6.25
2022-08-17T04:33:08.747Z,5.95
2022-08-17T04:35:46.081Z,6.35
2022-08-17T04:38:22.855Z,6.03
2022-08-17T04:41:09.283Z,6.70
2022-08-17T04:43:38.675Z,6.68
2022-08-17T04:46:10.184Z,7.35
2022-08-17T04:48:45.368Z,6.60
2022-08-17T04:51:33.337Z,6.38
2022-08-17T04:54:07.011Z,7.20
2022-08-17T04:56:34.609Z,6.32
2022-08-17T04:59:06.615Z,6.10
2022-08-17T05:01:36.141Z,6.60
2022-08-17T05:04:33.177Z,6.43
2022-08-17T05:06:57.583Z,6.40
2022-08-17T05:09:24.423Z,6.22
2022-08-17T05:11:51.326Z,7.20
2022-08-17T05:14:18.139Z,6.40
2022-08-17T05:16:45.766Z,6.47
2022-08-17T05:19:12.599Z,6.63
2022-08-17T05:21:39.424Z,6.68
2022-08-17T05:24:09.686Z,6.28
2022-08-17T05:26:53.213Z,6.60
2022-08-17T05:29:22.127Z,6.57
2022-08-17T05:32:39.691Z,6.03
2022-08-17T05:35:00.460Z,6.47
2022-08-17T05:37:28.108Z,6.63
2022-08-17T05:39:55.023Z,6.80
2022-08-17T05:42:22.125Z,6.28
2022-08-17T05:44:49.071Z,6.78
2022-08-17T05:47:16.545Z,7.40
2022-08-17T05:49:43.421Z,6.82
2022-08-17T05:52:29.453Z,6.65
2022-08-17T05:55:14.875Z,8.40
2022-08-17T05:58:05.851Z,7.28
2022-08-17T06:00:44.481Z,7.28
2022-08-17T06:03:49.871Z,7.43
2022-08-17T06:06:22.458Z,7.30
2022-08-17T06:08:55.162Z,7.05
2022-08-17T06:11:38.152Z,6.53
2022-08-17T06:14:18.171Z,6.80
2022-08-17T06:16:52.267Z,6.80
2022-08-17T06:19:42.084Z,6.85
2022-08-17T06:22:13.603Z,6.72
2022-08-17T06:25:03.692Z,7.85
2022-08-17T06:28:08.396Z,7.65
2022-08-17T06:30:59.516Z,8.50
2022-08-17T06:33:35.735Z,8.63
2022-08-17T06:36:35.301Z,7.28
2022-08-17T06:39:11.446Z,7.78
2022-08-17T06:42:09.435Z,7.22
2022-08-17T06:45:08.316Z,7.03
2022-08-17T06:47:53.285Z,7.40
2022-08-17T06:50:40.653Z,7.25
2022-08-17T06:53:18.061Z,6.20
2022-08-17T06:56:05.915Z,6.03
2022-08-17T06:58:35.655Z,6.00
2022-08-17T07:01:16.134Z,6.32
2022-08-17T07:03:49.772Z,5.63
2022-08-17T07:06:21.769Z,5.45
2022-08-17T07:09:07.905Z,5.55
2022-08-17T07:11:43.793Z,5.38
2022-08-17T07:14:17.523Z,5.35
2022-08-17T07:16:49.218Z,4.78
2022-08-17T07:19:20.608Z,5.90
2022-08-17T07:22:18.043Z,4.78
2022-08-17T07:24:49.688Z,5.00
2022-08-17T07:27:31.244Z,5.05
2022-08-17T07:30:20.637Z,5.15
2022-08-17T07:33:01.271Z,4.90
2022-08-17T07:35:41.069Z,4.68
2022-08-17T07:38:30.027Z,4.22
2022-08-17T07:41:03.222Z,4.20
2022-08-17T07:43:42.439Z,4.32
2022-08-17T07:46:46.254Z,4.13
2022-08-17T07:49:12.969Z,4.35
2022-08-17T07:52:00.475Z,4.35
2022-08-17T07:54:48.291Z,3.90
2022-08-17T07:57:15.099Z,4.32
2022-08-17T08:00:06.182Z,4.30
2022-08-17T08:02:45.427Z,4.35
2022-08-17T08:05:31.709Z,3.75
2022-08-17T08:08:42.275Z,3.65
2022-08-17T08:11:15.302Z,3.83
2022-08-17T08:13:45.475Z,3.80
2022-08-17T08:16:19.749Z,3.92
2022-08-17T08:18:55.557Z,3.58
2022-08-17T08:21:47.613Z,3.67
2022-08-17T08:24:32.443Z,3.72
2022-08-17T08:27:39.332Z,3.55
2022-08-17T08:30:22.723Z,3.70
2022-08-17T08:33:25.354Z,3.58
2022-08-17T08:36:56.627Z,4.00
2022-08-17T08:39:12.927Z,3.88
2022-08-17T08:42:07.528Z,3.50
2022-08-17T08:45:10.906Z,3.60
2022-08-17T08:50:38.217Z,2.95
2022-08-17T08:53:24.844Z,3.08
2022-08-17T08:56:05.399Z,3.20
2022-08-17T08:58:54.819Z,3.10
2022-08-17T09:02:16.102Z,3.30
2022-08-17T09:05:14.232Z,2.80
2022-08-17T09:08:04.409Z,2.63
2022-08-17T09:10:59.932Z,2.90
2022-08-17T09:14:07.433Z,2.78
2022-08-17T09:17:05.000Z,3.10
2022-08-17T09:20:06.728Z,2.78
2022-08-17T09:22:48.935Z,2.67
2022-08-17T09:25:22.126Z,3.13
2022-08-17T09:28:07.433Z,3.08
2022-08-17T09:30:46.893Z,2.90
2022-08-17T09:33:22.799Z,3.22
2022-08-17T09:36:05.673Z,3.10
2022-08-17T09:42:04.266Z,2.30
2022-08-17T09:44:54.033Z,3.00
2022-08-17T09:47:42.061Z,2.67
2022-08-17T09:51:03.586Z,2.42
2022-08-17T09:53:09.422Z,2.90
2022-08-17T09:56:05.284Z,2.55
2022-08-17T09:59:06.139Z,2.63
2022-08-17T10:01:43.834Z,2.80
2022-08-17T10:04:47.704Z,3.20
2022-08-17T10:07:23.372Z,2.45
2022-08-17T10:10:24.801Z,2.40
2022-08-17T10:13:30.612Z,2.88
2022-08-17T10:16:31.055Z,2.72
2022-08-17T10:19:24.159Z,2.65
2022-08-17T10:25:24.828Z,2.92
2022-08-17T10:28:07.416Z,2.78
2022-08-17T10:33:27.139Z,3.13
2022-08-17T10:36:10.796Z,2.40
2022-08-17T10:38:45.908Z,2.85
2022-08-17T10:41:40.575Z,2.40
2022-08-17T10:44:44.632Z,2.78
2022-08-17T10:47:19.667Z,2.90
2022-08-17T10:49:54.229Z,2.90
2022-08-17T10:52:24.080Z,2.72
2022-08-17T10:54:51.889Z,2.67
2022-08-17T10:57:31.746Z,2.65
2022-08-17T11:00:14.651Z,2.92
2022-08-17T11:06:06.448Z,2.90
2022-08-17T11:09:07.637Z,2.70
2022-08-17T11:11:47.283Z,2.60
2022-08-17T11:14:24.954Z,2.60
2022-08-17T11:17:13.153Z,2.90
2022-08-17T11:20:32.010Z,2.80
2022-08-17T11:23:13.474Z,2.65
2022-08-17T11:25:49.161Z,2.85
2022-08-17T11:28:23.996Z,2.70
2022-08-17T11:30:56.996Z,2.78
2022-08-17T11:33:30.492Z,2.88
2022-08-17T11:36:22.570Z,2.90
2022-08-17T11:39:02.597Z,2.40
2022-08-17T11:41:44.206Z,2.50
2022-08-17T11:44:20.887Z,2.70
2022-08-17T11:47:27.649Z,2.63
2022-08-17T11:50:28.164Z,2.55
2022-08-17T11:52:55.563Z,2.88
2022-08-17T11:55:51.878Z,3.00
2022-08-17T11:58:30.944Z,2.58
2022-08-17T12:01:05.943Z,3.17
2022-08-17T12:03:36.809Z,2.85
2022-08-17T12:06:24.887Z,2.60
2022-08-17T12:09:00.630Z,2.70
2022-08-17T12:12:13.780Z,2.70
2022-08-17T12:15:09.720Z,2.90
2022-08-17T12:17:41.003Z,2.50
2022-08-17T12:20:34.407Z,2.55
2022-08-17T12:23:23.156Z,2.97
2022-08-17T12:25:58.494Z,3.00
2022-08-17T12:28:35.243Z,2.47
2022-08-17T12:31:06.962Z,2.60
2022-08-17T12:33:37.299Z,2.50
2022-08-17T12:36:08.629Z,2.35
2022-08-17T12:38:37.746Z,2.30
2022-08-17T12:41:26.596Z,2.38
2022-08-17T12:44:09.475Z,2.72
2022-08-17T12:47:19.335Z,2.50
2022-08-17T12:49:52.194Z,2.50
2022-08-17T12:52:30.695Z,2.55
2022-08-17T12:55:22.398Z,2.65
2022-08-17T12:57:58.421Z,2.63
2022-08-17T13:00:30.723Z,3.13
2022-08-17T13:03:09.113Z,2.50
2022-08-17T13:05:55.967Z,2.50
2022-08-17T13:08:40.266Z,2.33
2022-08-17T13:11:18.714Z,2.28
2022-08-17T13:13:54.735Z,3.00
2022-08-17T13:16:30.058Z,5.15
2022-08-17T13:19:15.645Z,2.97
2022-08-17T13:21:56.169Z,4.05
2022-08-17T13:24:37.803Z,5.03
2022-08-17T13:27:08.817Z,10.50
2022-08-17T13:29:44.710Z,3.42
2022-08-17T13:32:13.778Z,6.63
2022-08-17T13:35:12.090Z,2.50
2022-08-17T13:37:36.392Z,5.90
2022-08-17T13:40:09.336Z,3.08
2022-08-17T13:42:51.763Z,2.47
2022-08-17T13:45:36.647Z,2.80
2022-08-17T13:48:14.434Z,2.42
2022-08-17T13:51:02.277Z,2.72
2022-08-17T13:53:40.126Z,2.42
2022-08-17T13:56:34.938Z,4.50
2022-08-17T13:59:54.193Z,2.72
2022-08-17T14:02:28.245Z,2.67
2022-08-17T14:04:58.944Z,2.47
2022-08-17T14:07:34.243Z,2.60
2022-08-17T14:10:09.609Z,2.53
2022-08-17T14:12:40.635Z,2.88
2022-08-17T14:15:08.584Z,2.65
2022-08-17T14:17:38.827Z,3.15
2022-08-17T14:20:19.861Z,3.58
2022-08-17T14:22:52.619Z,2.60
2022-08-17T14:25:27.353Z,3.80
2022-08-17T14:27:55.701Z,3.45
2022-08-17T14:30:28.896Z,2.88
2022-08-17T14:32:57.954Z,3.15
2022-08-17T14:35:25.251Z,2.67
2022-08-17T14:37:52.857Z,3.05
2022-08-17T14:40:24.948Z,2.72
2022-08-17T14:42:53.796Z,2.40
2022-08-17T14:45:30.422Z,2.80
2022-08-17T14:48:07.475Z,2.67
2022-08-17T14:50:39.108Z,2.63
2022-08-17T14:53:09.266Z,3.67
2022-08-17T14:55:40.419Z,2.53
2022-08-17T14:58:08.867Z,2.50
2022-08-17T15:00:38.980Z,2.70
2022-08-17T15:03:05.977Z,3.00
2022-08-17T15:05:36.614Z,3.13
2022-08-17T15:08:05.644Z,3.85
2022-08-17T15:10:33.312Z,2.58
2022-08-17T15:13:00.608Z,2.60
2022-08-17T15:15:28.431Z,3.00
2022-08-17T15:17:55.749Z,2.75
2022-08-17T15:20:27.902Z,3.00
2022-08-17T15:22:57.226Z,2.53
2022-08-17T15:25:27.471Z,2.90
2022-08-17T15:27:56.253Z,2.22
2022-08-17T15:30:25.842Z,3.65
2022-08-17T15:32:55.371Z,3.38
2022-08-17T15:35:30.441Z,2.40
2022-08-17T15:38:10.700Z,2.78
2022-08-17T15:40:45.391Z,2.80
2022-08-17T15:43:27.433Z,2.50
2022-08-17T15:48:41.699Z,2.38
2022-08-17T15:51:24.136Z,2.88
2022-08-17T15:53:58.487Z,2.47
2022-08-17T15:56:26.662Z,2.63
2022-08-17T15:58:55.134Z,2.50
2022-08-17T16:03:01.250Z,2.47
2022-08-17T16:04:26.910Z,2.45
2022-08-17T16:06:58.696Z,2.97
2022-08-17T16:09:25.585Z,2.38
2022-08-17T16:11:55.529Z,2.75
2022-08-17T16:14:30.227Z,2.78
2022-08-17T16:17:00.810Z,2.58
2022-08-17T16:19:27.707Z,2.60
2022-08-17T16:21:54.555Z,2.85
2022-08-17T16:24:21.373Z,2.90
2022-08-17T16:26:48.272Z,2.55
2022-08-17T16:29:15.072Z,2.40
2022-08-17T16:31:43.616Z,2.58
2022-08-17T16:34:16.271Z,2.50
2022-08-17T16:36:55.598Z,2.55
2022-08-17T16:39:29.246Z,2.70
2022-08-17T16:41:56.943Z,2.80
2022-08-17T16:44:25.716Z,2.50
2022-08-17T16:46:52.723Z,2.40
2022-08-17T16:49:31.940Z,2.72
2022-08-17T16:52:07.124Z,2.88
2022-08-17T16:54:35.350Z,2.65
2022-08-17T16:57:05.751Z,2.58
2022-08-17T16:59:41.978Z,2.92
2022-08-17T17:02:17.185Z,3.60
2022-08-17T17:05:02.577Z,2.60
2022-08-17T17:08:04.060Z,2.95
2022-08-17T17:10:52.606Z,2.60
2022-08-17T17:13:57.847Z,2.97
2022-08-17T17:17:01.208Z,3.05
2022-08-17T17:19:37.460Z,2.60
2022-08-17T17:22:19.425Z,2.70
2022-08-17T17:25:13.539Z,2.75
2022-08-17T17:28:01.802Z,2.67
2022-08-17T17:30:57.667Z,3.05
2022-08-17T17:33:52.603Z,2.80
2022-08-17T17:36:19.353Z,2.90
2022-08-17T17:38:55.607Z,3.00
2022-08-17T17:41:34.204Z,2.72
2022-08-17T17:44:12.230Z,3.22
2022-08-17T17:46:54.184Z,3.20
2022-08-17T17:49:21.431Z,3.03
2022-08-17T17:52:19.437Z,2.58
2022-08-17T17:55:22.308Z,2.97
2022-08-17T17:58:22.698Z,3.25
2022-08-17T18:01:10.070Z,3.05
2022-08-17T18:04:15.653Z,2.90
2022-08-17T18:07:12.170Z,3.20
2022-08-17T18:09:53.803Z,3.10
2022-08-17T18:12:57.186Z,3.40
2022-08-17T18:15:31.359Z,3.17
2022-08-17T18:18:14.171Z,2.92
2022-08-17T18:20:54.009Z,3.15
2022-08-17T18:23:28.123Z,3.25
2022-08-17T18:28:39.737Z,3.40
2022-08-17T18:31:19.515Z,3.17
2022-08-17T18:33:51.371Z,3.08
2022-08-17T18:36:33.876Z,4.50
2022-08-17T18:39:21.089Z,3.60
2022-08-17T18:41:53.115Z,2.88
2022-08-17T18:44:55.109Z,3.30
2022-08-17T18:47:27.973Z,4.05
2022-08-17T18:50:00.445Z,3.70
2022-08-17T18:52:31.928Z,3.83
2022-08-17T18:55:29.244Z,3.58
2022-08-17T18:58:00.146Z,3.60
2022-08-17T19:00:29.740Z,3.60
2022-08-17T19:03:02.837Z,3.63
2022-08-17T19:05:40.954Z,3.47
2022-08-17T19:08:28.676Z,3.70
2022-08-17T19:11:23.393Z,3.30
2022-08-17T19:13:53.567Z,3.38
2022-08-17T19:17:10.268Z,3.35
2022-08-17T19:20:10.231Z,3.33
2022-08-17T19:23:35.878Z,3.60
2022-08-17T19:26:51.144Z,3.60
2022-08-17T19:29:31.589Z,3.42
2022-08-17T19:32:01.678Z,3.58
2022-08-17T19:34:34.478Z,3.33
2022-08-17T19:38:00.692Z,3.42
2022-08-17T19:40:54.136Z,3.40
2022-08-17T19:43:36.191Z,3.95
2022-08-17T19:46:56.101Z,3.60
2022-08-17T19:49:55.483Z,3.67
2022-08-17T19:52:59.774Z,2.97
2022-08-17T19:56:06.320Z,2.83
2022-08-17T19:58:49.954Z,3.10
2022-08-17T20:01:45.814Z,3.33
2022-08-17T20:04:32.276Z,3.30
2022-08-17T20:07:34.377Z,3.30
2022-08-17T20:10:08.945Z,3.10
2022-08-17T20:12:39.598Z,3.40
2022-08-17T20:15:13.287Z,4.07
2022-08-17T20:17:45.359Z,4.80
2022-08-17T20:21:04.987Z,5.57
2022-08-17T20:23:53.600Z,4.65
2022-08-17T20:26:27.860Z,4.88
2022-08-17T20:29:37.173Z,5.05
2022-08-17T20:32:19.231Z,5.72
2022-08-17T20:34:47.607Z,5.32
2022-08-17T20:37:14.469Z,5.70
2022-08-17T20:40:08.814Z,5.90
2022-08-17T20:42:36.699Z,5.43
2022-08-17T20:45:24.372Z,5.18
2022-08-17T20:48:20.088Z,5.72
2022-08-17T20:51:00.945Z,5.00
2022-08-17T20:53:46.624Z,5.15
2022-08-17T20:56:43.084Z,5.03
2022-08-17T20:59:31.583Z,5.28
2022-08-17T21:02:17.529Z,5.20
2022-08-17T21:04:59.805Z,4.90
2022-08-17T21:07:45.842Z,4.68
2022-08-17T21:10:22.571Z,5.35
2022-08-17T21:13:14.058Z,5.68
2022-08-17T21:16:15.389Z,5.68
2022-08-17T21:20:00.227Z,6.80
2022-08-17T21:22:56.745Z,6.78
2022-08-17T21:26:10.128Z,7.03
2022-08-17T21:29:01.676Z,6.70
2022-08-17T21:32:09.660Z,5.68
2022-08-17T21:34:44.919Z,6.50
2022-08-17T21:37:23.714Z,5.03
2022-08-17T21:40:00.410Z,5.10
2022-08-17T21:42:34.595Z,5.55
2022-08-17T21:45:31.430Z,5.63
2022-08-17T21:48:27.401Z,5.57
2022-08-17T21:51:08.905Z,4.70
2022-08-17T21:53:47.995Z,5.40
2022-08-17T21:56:38.184Z,7.05
2022-08-17T21:59:21.872Z,6.00
2022-08-17T22:02:17.676Z,5.60
2022-08-17T22:05:02.945Z,5.72
2022-08-17T22:07:47.703Z,6.07
2022-08-17T22:10:41.822Z,5.40
2022-08-17T22:13:17.050Z,5.95
2022-08-17T22:15:49.955Z,5.30
2022-08-17T22:18:27.415Z,5.07
2022-08-17T22:20:58.573Z,5.15
2022-08-17T22:23:49.704Z,5.22
2022-08-17T22:26:19.552Z,4.65
2022-08-17T22:28:54.400Z,5.07
2022-08-17T22:31:28.361Z,4.97
2022-08-17T22:33:59.749Z,4.97
2022-08-17T22:36:36.992Z,5.28
2022-08-17T22:39:09.789Z,5.18
2022-08-17T22:41:54.378Z,5.13
2022-08-17T22:44:35.548Z,4.93
2022-08-17T22:47:14.355Z,4.95
2022-08-17T22:49:57.273Z,5.47
2022-08-17T22:53:01.423Z,6.25
2022-08-17T22:55:50.162Z,6.00
2022-08-17T22:58:40.430Z,5.60
2022-08-17T23:01:32.330Z,5.53
2022-08-17T23:04:02.413Z,5.95
2022-08-17T23:06:32.421Z,6.88
2022-08-17T23:09:00.032Z,5.68
2022-08-17T23:11:48.685Z,6.47
2022-08-17T23:14:21.094Z,5.35
2022-08-17T23:16:50.327Z,5.63
2022-08-17T23:19:20.974Z,5.10
2022-08-17T23:21:50.977Z,5.07
2022-08-17T23:24:23.860Z,4.50
2022-08-17T23:29:17.530Z,5.25
2022-08-17T23:31:44.403Z,5.63
2022-08-17T23:34:14.942Z,4.97
2022-08-17T23:36:45.325Z,5.10
2022-08-17T23:39:13.509Z,5.50
2022-08-17T23:41:53.412Z,5.53
2022-08-17T23:44:24.452Z,6.00
2022-08-17T23:46:52.616Z,5.00
2022-08-17T23:49:19.926Z,5.15
2022-08-17T23:51:48.805Z,5.07
2022-08-17T23:54:33.585Z,5.63
2022-08-17T23:57:04.807Z,4.93
2022-08-17T23:59:32.876Z,5.30
